createdAt,value
2022-10-19T00:00:04.846Z,8.75
2022-10-19T00:02:32.306Z,7.75
2022-10-19T00:04:59.387Z,7.43
2022-10-19T00:07:26.454Z,7.20
2022-10-19T00:09:53.511Z,6.78
2022-10-19T00:12:20.575Z,7.68
2022-10-19T00:14:47.717Z,7.40
2022-10-19T00:17:14.845Z,8.63
2022-10-19T00:19:41.931Z,7.90
2022-10-19T00:22:11.634Z,7.85
2022-10-19T00:24:41.269Z,7.88
2022-10-19T00:27:08.327Z,7.03
2022-10-19T00:29:35.411Z,7.18
2022-10-19T00:32:02.486Z,6.13
2022-10-19T00:34:29.584Z,8.23
2022-10-19T00:36:57.384Z,11.55
2022-10-19T00:39:24.505Z,10.30
2022-10-19T00:41:51.621Z,10.77
2022-10-19T00:44:18.906Z,7.75
2022-10-19T00:46:50.514Z,8.38
2022-10-19T00:49:22.592Z,10.75
2022-10-19T00:51:54.004Z,7.63
2022-10-19T00:54:21.334Z,7.97
2022-10-19T00:56:49.757Z,8.50
2022-10-19T00:59:18.507Z,8.48
2022-10-19T01:01:46.415Z,8.13
2022-10-19T01:04:13.919Z,7.75
2022-10-19T01:06:44.115Z,7.50
2022-10-19T01:09:11.422Z,8.77
2022-10-19T01:12:08.230Z,7.70
2022-10-19T01:14:53.999Z,6.85
2022-10-19T01:17:31.159Z,7.38
2022-10-19T01:20:35.544Z,6.68
2022-10-19T01:23:21.459Z,6.32
2022-10-19T01:26:07.354Z,6.00
2022-10-19T01:28:54.030Z,6.45
2022-10-19T01:31:21.141Z,6.93
2022-10-19T01:33:54.284Z,6.35
2022-10-19T01:36:30.595Z,6.57
2022-10-19T01:39:11.142Z,7.38
2022-10-19T01:41:38.155Z,7.30
2022-10-19T01:44:11.978Z,7.22
2022-10-19T01:46:40.465Z,7.15
2022-10-19T01:49:18.861Z,7.03
2022-10-19T01:51:55.260Z,6.47
2022-10-19T01:54:23.249Z,6.55
2022-10-19T01:56:51.211Z,6.93
2022-10-19T01:59:19.531Z,5.65
2022-10-19T02:01:48.018Z,5.85
2022-10-19T02:04:16.327Z,6.38
2022-10-19T02:06:43.897Z,6.50
2022-10-19T02:09:17.907Z,6.80
2022-10-19T02:11:49.622Z,6.72
2022-10-19T02:14:20.418Z,6.25
2022-10-19T02:16:50.266Z,5.88
2022-10-19T02:19:18.738Z,6.40
2022-10-19T02:21:45.888Z,6.45
2022-10-19T02:24:12.961Z,6.82
2022-10-19T02:26:40.851Z,6.65
2022-10-19T02:29:08.688Z,6.00
2022-10-19T02:31:35.807Z,6.47
2022-10-19T02:34:03.020Z,7.07
2022-10-19T02:36:30.105Z,6.15
2022-10-19T02:38:57.180Z,6.22
2022-10-19T02:41:27.931Z,5.15
2022-10-19T02:44:01.676Z,5.93
2022-10-19T02:46:32.949Z,6.57
2022-10-19T02:49:00.432Z,6.47
2022-10-19T02:51:33.508Z,5.88
2022-10-19T02:54:04.165Z,6.32
2022-10-19T02:56:32.435Z,6.30
2022-10-19T02:58:59.480Z,6.93
2022-10-19T03:01:26.556Z,5.72
2022-10-19T03:03:53.643Z,5.85
2022-10-19T03:06:20.719Z,6.45
2022-10-19T03:08:47.856Z,6.60
2022-10-19T03:11:15.008Z,6.72
2022-10-19T03:13:43.330Z,6.00
2022-10-19T03:16:11.799Z,5.88
2022-10-19T03:18:39.304Z,6.25
2022-10-19T03:21:07.698Z,6.55
2022-10-19T03:23:35.594Z,7.53
2022-10-19T03:26:07.583Z,7.22
2022-10-19T03:28:37.709Z,6.07
2022-10-19T03:31:04.851Z,6.95
2022-10-19T03:33:31.929Z,7.03
2022-10-19T03:36:18.023Z,6.95
2022-10-19T03:38:45.275Z,6.57
2022-10-19T03:41:12.436Z,6.90
2022-10-19T03:43:41.116Z,5.88
2022-10-19T03:46:08.624Z,6.50
2022-10-19T03:48:35.900Z,6.10
2022-10-19T03:51:04.424Z,6.28
2022-10-19T03:53:33.137Z,6.00
2022-10-19T03:56:06.683Z,6.32
2022-10-19T03:58:34.847Z,7.50
2022-10-19T04:01:02.240Z,5.20
2022-10-19T04:03:29.767Z,5.97
2022-10-19T04:06:02.764Z,6.63
2022-10-19T04:08:30.108Z,6.35
2022-10-19T04:11:01.096Z,6.25
2022-10-19T04:13:28.479Z,6.60
2022-10-19T04:15:55.752Z,6.40
2022-10-19T04:18:22.852Z,6.60
2022-10-19T04:20:49.945Z,6.50
2022-10-19T04:25:48.999Z,6.00
2022-10-19T04:28:16.092Z,5.90
2022-10-19T04:30:43.150Z,6.07
2022-10-19T04:33:10.248Z,6.75
2022-10-19T04:35:37.299Z,6.40
2022-10-19T04:38:04.346Z,6.20
2022-10-19T04:40:31.006Z,6.03
2022-10-19T04:42:58.535Z,6.57
2022-10-19T04:45:25.622Z,5.97
2022-10-19T04:47:54.159Z,5.47
2022-10-19T04:50:21.202Z,5.80
2022-10-19T04:52:51.427Z,6.63
2022-10-19T04:55:18.620Z,6.13
2022-10-19T04:57:45.867Z,6.68
2022-10-19T05:00:13.246Z,6.07
2022-10-19T05:02:43.626Z,5.88
2022-10-19T05:05:10.747Z,6.03
2022-10-19T05:07:37.846Z,5.95
2022-10-19T05:10:05.274Z,5.35
2022-10-19T05:12:32.377Z,6.25
2022-10-19T05:14:59.515Z,6.63
2022-10-19T05:17:26.618Z,5.28
2022-10-19T05:19:53.851Z,5.40
2022-10-19T05:22:20.924Z,6.10
2022-10-19T05:24:54.494Z,6.07
2022-10-19T05:27:24.507Z,6.20
2022-10-19T05:29:51.588Z,5.70
2022-10-19T05:32:18.665Z,6.10
2022-10-19T05:34:45.716Z,5.45
2022-10-19T05:37:12.769Z,5.22
2022-10-19T05:39:39.891Z,4.45
2022-10-19T05:42:06.963Z,5.50
2022-10-19T05:44:34.476Z,5.90
2022-10-19T05:47:01.696Z,6.32
2022-10-19T05:49:28.836Z,5.63
2022-10-19T05:51:56.014Z,5.18
2022-10-19T05:54:25.081Z,5.65
2022-10-19T05:56:54.888Z,4.53
2022-10-19T05:59:22.279Z,4.90
2022-10-19T06:01:49.626Z,6.20
2022-10-19T06:06:48.775Z,8.48
2022-10-19T06:09:15.958Z,7.25
2022-10-19T06:11:43.719Z,6.47
2022-10-19T06:14:14.838Z,5.68
2022-10-19T06:16:42.367Z,6.10
2022-10-19T06:19:09.737Z,6.80
2022-10-19T06:21:38.690Z,6.65
2022-10-19T06:24:08.024Z,5.82
2022-10-19T06:26:44.715Z,5.03
2022-10-19T06:29:12.309Z,6.05
2022-10-19T06:31:39.437Z,5.97
2022-10-19T06:34:06.681Z,6.60
2022-10-19T06:36:34.248Z,6.68
2022-10-19T06:39:02.140Z,6.45
2022-10-19T06:41:36.184Z,6.00
2022-10-19T06:44:18.431Z,6.00
2022-10-19T06:46:45.717Z,6.57
2022-10-19T06:49:13.635Z,5.43
2022-10-19T06:51:40.805Z,6.13
2022-10-19T06:54:08.090Z,6.05
2022-10-19T06:56:35.223Z,6.18
2022-10-19T06:59:02.372Z,5.85
2022-10-19T07:01:29.478Z,6.32
2022-10-19T07:03:56.680Z,5.70
2022-10-19T07:06:24.442Z,6.05
2022-10-19T07:08:53.151Z,6.38
2022-10-19T07:11:22.619Z,6.18
2022-10-19T07:13:50.019Z,6.63
2022-10-19T07:16:20.673Z,6.65
2022-10-19T07:18:49.079Z,6.38
2022-10-19T07:21:16.961Z,5.53
2022-10-19T07:23:44.808Z,6.07
2022-10-19T07:26:13.458Z,6.60
2022-10-19T07:28:41.217Z,6.55
2022-10-19T07:31:09.561Z,6.80
2022-10-19T07:33:36.996Z,6.75
2022-10-19T07:36:05.807Z,6.15
2022-10-19T07:38:33.586Z,6.30
2022-10-19T07:41:03.068Z,6.05
2022-10-19T07:43:30.520Z,4.85
2022-10-19T07:46:01.347Z,5.65
2022-10-19T07:48:28.721Z,5.95
2022-10-19T07:50:55.869Z,5.40
2022-10-19T07:53:23.013Z,5.78
2022-10-19T07:55:50.199Z,5.75
2022-10-19T07:58:17.275Z,5.03
2022-10-19T08:00:44.599Z,3.60
2022-10-19T08:06:02.867Z,3.80
2022-10-19T08:08:30.120Z,3.58
2022-10-19T08:10:57.264Z,3.97
2022-10-19T08:13:24.527Z,3.67
2022-10-19T08:15:51.591Z,3.55
2022-10-19T08:18:18.758Z,3.25
2022-10-19T08:20:45.895Z,2.70
2022-10-19T08:23:12.983Z,2.97
2022-10-19T08:25:40.119Z,3.10
2022-10-19T08:28:07.262Z,2.30
2022-10-19T08:30:38.625Z,2.88
2022-10-19T08:33:08.292Z,3.03
2022-10-19T08:38:02.938Z,1.80
2022-10-19T08:40:30.930Z,2.42
2022-10-19T08:43:10.170Z,2.30
2022-10-19T08:45:37.277Z,2.65
2022-10-19T08:48:33.075Z,2.58
2022-10-19T08:51:01.328Z,2.33
2022-10-19T08:53:43.507Z,2.35
2022-10-19T08:56:55.577Z,2.38
2022-10-19T08:59:22.636Z,2.35
2022-10-19T09:01:55.926Z,2.03
2022-10-19T09:04:58.291Z,2.50
2022-10-19T09:07:33.536Z,2.10
2022-10-19T09:10:15.587Z,2.50
2022-10-19T09:12:47.835Z,2.50
2022-10-19T09:15:49.387Z,2.80
2022-10-19T09:18:23.146Z,2.80
2022-10-19T09:20:53.951Z,2.30
2022-10-19T09:23:30.103Z,2.85
2022-10-19T09:28:27.408Z,2.20
2022-10-19T09:30:59.324Z,2.53
2022-10-19T09:33:32.529Z,3.00
2022-10-19T09:36:01.200Z,2.78
2022-10-19T09:38:29.453Z,2.45
2022-10-19T09:40:58.375Z,2.22
2022-10-19T09:43:27.154Z,2.60
2022-10-19T09:46:20.043Z,2.60
2022-10-19T09:48:54.310Z,2.53
2022-10-19T09:51:22.103Z,2.05
2022-10-19T09:53:55.507Z,2.35
2022-10-19T09:56:27.523Z,2.17
2022-10-19T09:58:59.677Z,2.42
2022-10-19T10:01:43.162Z,1.95
2022-10-19T10:04:19.123Z,1.98
2022-10-19T10:06:48.338Z,1.83
2022-10-19T10:09:23.228Z,1.98
2022-10-19T10:11:51.724Z,2.35
2022-10-19T10:14:32.377Z,2.40
2022-10-19T10:17:05.048Z,2.13
2022-10-19T10:19:33.918Z,2.00
2022-10-19T10:22:01.198Z,1.55
2022-10-19T10:24:33.381Z,1.92
2022-10-19T10:27:03.588Z,1.60
2022-10-19T10:29:33.225Z,1.70
2022-10-19T10:32:19.370Z,1.80
2022-10-19T10:35:02.772Z,2.25
2022-10-19T10:37:30.884Z,1.45
2022-10-19T10:40:03.561Z,2.17
2022-10-19T10:42:37.056Z,1.80
2022-10-19T10:45:05.438Z,2.00
2022-10-19T10:47:32.855Z,1.83
2022-10-19T10:50:05.774Z,1.40
2022-10-19T10:52:33.855Z,1.80
2022-10-19T10:55:17.042Z,1.40
2022-10-19T10:57:51.684Z,1.15
2022-10-19T11:00:26.692Z,1.50
2022-10-19T11:03:05.109Z,1.77
2022-10-19T11:05:36.316Z,1.63
2022-10-19T11:08:25.270Z,1.80
2022-10-19T11:10:59.876Z,1.80
2022-10-19T11:13:50.468Z,1.77
2022-10-19T11:16:19.944Z,1.60
2022-10-19T11:21:39.977Z,1.50
2022-10-19T11:24:25.721Z,1.60
2022-10-19T11:27:10.590Z,1.52
2022-10-19T11:29:46.227Z,1.85
2022-10-19T11:35:11.446Z,1.60
2022-10-19T11:38:19.840Z,1.30
2022-10-19T11:41:18.139Z,1.42
2022-10-19T11:44:11.402Z,1.65
2022-10-19T11:47:01.284Z,1.63
2022-10-19T11:49:48.210Z,1.95
2022-10-19T11:52:31.414Z,1.65
2022-10-19T11:54:58.854Z,1.23
2022-10-19T11:57:32.267Z,1.50
2022-10-19T12:00:15.300Z,1.70
2022-10-19T12:02:59.336Z,1.65
2022-10-19T12:05:50.448Z,1.35
2022-10-19T12:08:32.214Z,1.45
2022-10-19T12:11:10.407Z,1.88
2022-10-19T12:13:44.267Z,1.98
2022-10-19T12:16:14.118Z,1.70
2022-10-19T12:21:33.225Z,1.50
2022-10-19T12:24:03.775Z,1.90
2022-10-19T12:26:34.680Z,1.67
2022-10-19T12:29:07.077Z,1.70
2022-10-19T12:31:34.495Z,1.90
2022-10-19T12:34:06.571Z,1.60
2022-10-19T12:36:57.171Z,1.98
2022-10-19T12:39:39.410Z,1.98
2022-10-19T12:42:15.954Z,2.35
2022-10-19T12:45:03.800Z,1.98
2022-10-19T12:47:30.529Z,2.28
2022-10-19T12:49:59.999Z,1.90
2022-10-19T12:52:48.188Z,1.63
2022-10-19T12:55:17.740Z,2.17
2022-10-19T12:57:48.374Z,2.10
2022-10-19T13:00:28.155Z,2.40
2022-10-19T13:03:15.549Z,2.42
2022-10-19T13:05:43.026Z,2.38
2022-10-19T13:08:13.704Z,2.00
2022-10-19T13:10:44.021Z,2.40
2022-10-19T13:13:31.132Z,2.40
2022-10-19T13:15:58.234Z,2.58
2022-10-19T13:18:54.438Z,2.55
2022-10-19T13:21:40.187Z,2.58
2022-10-19T13:24:20.414Z,2.67
2022-10-19T13:26:47.479Z,2.35
2022-10-19T13:29:27.733Z,2.58
2022-10-19T13:31:54.923Z,2.55
2022-10-19T13:34:24.997Z,2.35
2022-10-19T13:39:27.200Z,2.50
2022-10-19T13:41:56.201Z,3.05
2022-10-19T13:44:35.292Z,2.30
2022-10-19T13:47:28.204Z,2.55
2022-10-19T13:50:01.404Z,2.58
2022-10-19T13:52:41.465Z,3.08
2022-10-19T13:55:28.485Z,2.50
2022-10-19T13:58:16.044Z,2.03
2022-10-19T14:01:01.655Z,2.40
2022-10-19T14:03:43.865Z,2.42
2022-10-19T14:06:10.933Z,2.42
2022-10-19T14:08:56.916Z,2.35
2022-10-19T14:11:32.248Z,2.15
2022-10-19T14:14:11.584Z,2.33
2022-10-19T14:16:55.970Z,2.38
2022-10-19T14:19:43.535Z,2.50
2022-10-19T14:22:20.099Z,1.95
2022-10-19T14:24:47.209Z,2.30
2022-10-19T14:27:18.144Z,2.30
2022-10-19T14:29:47.405Z,2.40
2022-10-19T14:32:14.877Z,2.25
2022-10-19T14:34:45.967Z,2.28
2022-10-19T14:37:31.112Z,2.38
2022-10-19T14:40:01.122Z,2.20
2022-10-19T14:42:38.837Z,2.30
2022-10-19T14:45:10.811Z,2.80
2022-10-19T14:47:38.063Z,2.20
2022-10-19T14:50:05.375Z,2.13
2022-10-19T14:52:35.910Z,2.28
2022-10-19T14:55:11.511Z,2.33
2022-10-19T14:57:42.954Z,1.95
2022-10-19T15:00:18.522Z,1.85
2022-10-19T15:02:56.190Z,2.33
2022-10-19T15:05:26.311Z,1.90
2022-10-19T15:10:34.938Z,2.60
2022-10-19T15:13:04.638Z,2.50
2022-10-19T15:15:32.843Z,1.88
2022-10-19T15:17:59.992Z,2.67
2022-10-19T15:20:27.347Z,2.33
2022-10-19T15:22:54.532Z,1.92
2022-10-19T15:25:24.682Z,2.40
2022-10-19T15:32:58.851Z,2.42
2022-10-19T15:35:39.036Z,2.25
2022-10-19T15:38:10.698Z,2.38
2022-10-19T15:40:39.651Z,2.40
2022-10-19T15:43:25.556Z,2.72
2022-10-19T15:46:03.176Z,4.70
2022-10-19T15:48:44.259Z,2.80
2022-10-19T15:51:26.549Z,2.90
2022-10-19T15:53:54.901Z,2.50
2022-10-19T15:56:22.683Z,2.47
2022-10-19T15:58:50.438Z,2.40
2022-10-19T16:01:19.040Z,2.53
2022-10-19T16:03:46.698Z,3.10
2022-10-19T16:06:14.144Z,2.40
2022-10-19T16:08:41.313Z,2.97
2022-10-19T16:11:14.988Z,2.70
2022-10-19T16:13:42.344Z,3.22
2022-10-19T16:16:11.557Z,2.80
2022-10-19T16:18:38.871Z,2.80
2022-10-19T16:21:06.100Z,3.25
2022-10-19T16:23:37.793Z,3.28
2022-10-19T16:26:08.161Z,5.80
2022-10-19T16:28:35.298Z,3.15
2022-10-19T16:31:02.377Z,3.20
2022-10-19T16:33:29.424Z,3.03
2022-10-19T16:35:56.503Z,3.33
2022-10-19T16:38:23.595Z,2.78
2022-10-19T16:40:50.663Z,3.35
2022-10-19T16:43:17.760Z,4.10
2022-10-19T16:45:44.903Z,3.33
2022-10-19T16:48:14.814Z,3.78
2022-10-19T16:53:10.313Z,3.85
2022-10-19T16:55:40.849Z,4.10
2022-10-19T16:58:07.913Z,3.78
2022-10-19T17:00:35.885Z,4.28
2022-10-19T17:03:02.968Z,4.15
2022-10-19T17:05:30.077Z,4.75
2022-10-19T17:07:57.188Z,5.28
2022-10-19T17:10:24.365Z,4.80
2022-10-19T17:12:51.700Z,4.88
2022-10-19T17:15:42.139Z,4.50
2022-10-19T17:18:10.254Z,4.90
2022-10-19T17:20:37.321Z,4.68
2022-10-19T17:23:04.392Z,4.00
2022-10-19T17:25:31.480Z,3.78
2022-10-19T17:27:58.529Z,5.15
2022-10-19T17:30:25.600Z,4.57
2022-10-19T17:32:52.697Z,5.32
2022-10-19T17:35:22.124Z,5.32
2022-10-19T17:37:49.292Z,5.22
2022-10-19T17:40:16.341Z,5.45
2022-10-19T17:42:43.396Z,6.10
2022-10-19T17:45:11.031Z,5.35
2022-10-19T17:47:38.435Z,6.25
2022-10-19T17:50:05.822Z,5.82
2022-10-19T17:52:32.873Z,6.65
2022-10-19T17:55:11.577Z,6.20
2022-10-19T17:57:39.634Z,9.25
2022-10-19T18:00:07.702Z,6.60
2022-10-19T18:02:40.422Z,7.18
2022-10-19T18:05:07.766Z,6.82
2022-10-19T18:07:35.255Z,6.75
2022-10-19T18:10:02.544Z,6.47
2022-10-19T18:12:30.020Z,6.50
2022-10-19T18:14:57.135Z,6.47
2022-10-19T18:17:27.628Z,6.45
2022-10-19T18:19:55.040Z,5.95
2022-10-19T18:22:22.342Z,5.43
2022-10-19T18:24:49.521Z,5.95
2022-10-19T18:27:16.739Z,6.65
2022-10-19T18:29:44.014Z,6.65
2022-10-19T18:32:11.966Z,6.43
2022-10-19T18:34:39.253Z,11.15
2022-10-19T18:37:07.267Z,7.25
2022-10-19T18:39:34.619Z,7.72
2022-10-19T18:42:01.799Z,7.40
2022-10-19T18:44:32.546Z,7.78
2022-10-19T18:47:00.706Z,6.30
2022-10-19T18:49:28.093Z,6.53
2022-10-19T18:51:56.028Z,6.53
2022-10-19T18:54:23.970Z,11.63
2022-10-19T18:56:51.116Z,7.43
2022-10-19T18:59:18.711Z,6.00
2022-10-19T19:01:46.128Z,5.93
2022-10-19T19:04:13.283Z,6.80
2022-10-19T19:06:40.495Z,8.02
2022-10-19T19:09:09.181Z,4.95
2022-10-19T19:11:38.181Z,6.57
2022-10-19T19:14:06.857Z,6.93
2022-10-19T19:16:35.996Z,7.32
2022-10-19T19:19:03.389Z,6.85
2022-10-19T19:21:31.689Z,6.05
2022-10-19T19:24:00.185Z,5.78
2022-10-19T19:26:28.530Z,4.75
2022-10-19T19:28:57.340Z,5.78
2022-10-19T19:31:24.852Z,5.63
2022-10-19T19:33:52.296Z,5.97
2022-10-19T19:36:19.958Z,5.20
2022-10-19T19:38:48.865Z,4.95
2022-10-19T19:41:16.320Z,5.97
2022-10-19T19:43:46.805Z,5.72
2022-10-19T19:46:15.270Z,5.88
2022-10-19T19:48:43.160Z,5.72
2022-10-19T19:51:11.158Z,5.30
2022-10-19T19:53:38.462Z,5.30
2022-10-19T19:56:09.463Z,4.50
2022-10-19T19:58:36.986Z,6.00
2022-10-19T20:01:15.301Z,5.75
2022-10-19T20:03:43.454Z,4.63
2022-10-19T20:06:11.554Z,5.40
2022-10-19T20:08:38.766Z,5.72
2022-10-19T20:11:07.788Z,4.97
2022-10-19T20:13:35.356Z,4.60
2022-10-19T20:16:13.860Z,5.60
2022-10-19T20:18:41.889Z,5.65
2022-10-19T20:21:09.908Z,5.38
2022-10-19T20:23:37.200Z,5.80
2022-10-19T20:26:04.366Z,5.53
2022-10-19T20:28:34.737Z,4.90
2022-10-19T20:33:29.852Z,5.82
2022-10-19T20:35:57.204Z,5.03
2022-10-19T20:38:25.455Z,5.15
2022-10-19T20:40:54.454Z,5.10
2022-10-19T20:43:21.614Z,5.00
2022-10-19T20:45:48.857Z,5.10
2022-10-19T20:48:16.441Z,5.43
2022-10-19T20:50:46.389Z,4.88
2022-10-19T20:53:13.509Z,5.28
2022-10-19T20:55:40.781Z,5.20
2022-10-19T20:58:08.068Z,5.28
2022-10-19T21:00:35.360Z,5.55
2022-10-19T21:03:02.478Z,5.25
2022-10-19T21:05:29.550Z,5.50
2022-10-19T21:07:56.725Z,5.57
2022-10-19T21:10:24.025Z,5.60
2022-10-19T21:12:51.135Z,3.67
2022-10-19T21:15:18.393Z,5.63
2022-10-19T21:17:47.850Z,5.43
2022-10-19T21:20:14.975Z,4.90
2022-10-19T21:22:42.623Z,5.35
2022-10-19T21:25:10.433Z,5.10
2022-10-19T21:27:38.016Z,5.97
2022-10-19T21:30:05.488Z,4.82
2022-10-19T21:32:32.620Z,5.57
2022-10-19T21:34:59.247Z,5.50
2022-10-19T21:37:26.323Z,4.82
2022-10-19T21:39:53.365Z,5.78
2022-10-19T21:42:20.506Z,5.10
2022-10-19T21:44:47.634Z,5.28
2022-10-19T21:47:14.679Z,4.85
2022-10-19T21:49:41.739Z,5.20
2022-10-19T21:52:11.447Z,5.30
2022-10-19T21:54:40.827Z,4.32
2022-10-19T21:57:07.871Z,5.25
2022-10-19T21:59:34.973Z,5.15
2022-10-19T22:02:02.263Z,5.50
2022-10-19T22:04:30.408Z,5.68
2022-10-19T22:06:59.464Z,6.05
2022-10-19T22:09:26.559Z,5.28
2022-10-19T22:11:53.765Z,5.32
2022-10-19T22:14:20.909Z,5.38
2022-10-19T22:16:48.038Z,5.82
2022-10-19T22:19:15.292Z,6.25
2022-10-19T22:21:42.421Z,5.53
2022-10-19T22:24:11.799Z,5.50
2022-10-19T22:26:40.145Z,5.25
2022-10-19T22:29:07.979Z,6.13
2022-10-19T22:31:35.879Z,5.90
2022-10-19T22:34:03.948Z,5.70
2022-10-19T22:36:31.105Z,4.95
2022-10-19T22:38:58.192Z,5.38
2022-10-19T22:42:02.759Z,5.05
2022-10-19T22:44:29.892Z,5.57
2022-10-19T22:46:57.186Z,5.43
2022-10-19T22:49:24.298Z,4.68
2022-10-19T22:51:51.366Z,5.43
2022-10-19T22:54:18.496Z,5.28
2022-10-19T22:56:45.591Z,6.30
2022-10-19T22:59:12.699Z,5.35
2022-10-19T23:01:39.888Z,5.88
2022-10-19T23:04:07.102Z,5.90
2022-10-19T23:06:34.256Z,5.65
2022-10-19T23:09:01.420Z,6.07
2022-10-19T23:11:28.683Z,5.95
2022-10-19T23:13:55.788Z,6.00
2022-10-19T23:16:22.924Z,5.88
2022-10-19T23:18:50.083Z,5.20
2022-10-19T23:21:17.206Z,5.72
2022-10-19T23:23:44.534Z,5.28
2022-10-19T23:26:11.639Z,5.00
2022-10-19T23:28:39.885Z,5.45
2022-10-19T23:31:11.518Z,5.28
2022-10-19T23:33:38.608Z,5.60
2022-10-19T23:36:10.015Z,5.15
2022-10-19T23:38:37.191Z,5.50
2022-10-19T23:41:06.354Z,5.80
2022-10-19T23:43:33.750Z,5.45
2022-10-19T23:46:01.344Z,5.72
2022-10-19T23:48:28.534Z,5.95
2022-10-19T23:50:59.612Z,6.32
2022-10-19T23:53:29.521Z,5.00
2022-10-19T23:56:04.030Z,4.82
2022-10-19T23:58:31.164Z,5.65
